< < Back
Terminal Aerodrome Forecast


Current Version              Previous Versions:   1  2  3  4  5  6  7  8  9  

Terminal Aerodrome Forecast

207
FTUS44 KBMX 290101 AAA
TAFBHM
TAF AMD
KBHM 290101Z 2901/2924 09003KT P6SM VCTS BKN050CB
     FM290200 08003KT P6SM SCT050
     FM291600 07009KT P6SM SCT050=

Latest METAR

977
SAUS70 KWBC 291800 RRB
MTRBHM
METAR KBHM 291753Z VRB06KT 10SM FEW049 SCT250 33/20 A3012 RMK AO2 SLP190
T03280200 10333 20239 58010


USA.gov is the U.S. government's official web portal to all federal, state and local government web resources and services.